createdAt,value
2023-04-21T05:04:47.585Z,97939.75
2023-04-21T05:09:49.241Z,97943.56
2023-04-21T05:14:50.664Z,97947.41
2023-04-21T05:19:52.190Z,97952.06
2023-04-21T05:24:53.594Z,97953.97
2023-04-21T05:29:55.295Z,97958.13
2023-04-21T05:34:56.887Z,97969.44
2023-04-21T05:39:58.327Z,97956.84
2023-04-21T05:44:59.876Z,97959.84
2023-04-21T05:50:02.406Z,97954.19
2023-04-21T05:55:04.183Z,97945.88
2023-04-21T06:00:07.042Z,97948.22
2023-04-21T06:05:08.547Z,97947.22
2023-04-21T06:10:11.548Z,97942.88
2023-04-21T06:15:13.139Z,97945.53
2023-04-21T06:20:14.612Z,97949.81
2023-04-21T06:25:16.214Z,97943.47
2023-04-21T06:30:18.057Z,97938.78
2023-04-21T06:35:20.377Z,97936.41
2023-04-21T06:40:21.874Z,97929.72
2023-04-21T06:45:23.459Z,97931.81
2023-04-21T06:50:24.893Z,97924.25
2023-04-21T06:55:26.398Z,97928.22
2023-04-21T07:00:27.993Z,97937.50
2023-04-21T07:05:29.535Z,97943.06
2023-04-21T07:10:31.884Z,97939.66
2023-04-21T07:15:33.307Z,97938.69
2023-04-21T07:20:34.822Z,97942.25
2023-04-21T07:25:36.650Z,97935.56
2023-04-21T07:30:38.141Z,97931.72
2023-04-21T07:35:39.855Z,97926.84
2023-04-21T07:40:41.375Z,97926.50
2023-04-21T07:45:42.921Z,97931.31
2023-04-21T07:50:44.987Z,97919.22
2023-04-21T07:55:46.420Z,97929.06
2023-04-21T08:00:48.452Z,97925.50
2023-04-21T08:05:50.262Z,97920.94
2023-04-21T08:10:52.360Z,97924.38
2023-04-21T08:15:54.357Z,97922.09
2023-04-21T08:20:58.115Z,97918.53
2023-04-21T08:26:01.050Z,97927.31
2023-04-21T08:31:02.897Z,97919.19
2023-04-21T08:36:12.248Z,97905.69
2023-04-21T08:41:20.526Z,97902.69
2023-04-21T08:46:23.868Z,97897.03
2023-04-21T08:51:27.919Z,97898.13
2023-04-21T08:56:29.457Z,97903.53
2023-04-21T09:01:31.136Z,97902.34
2023-04-21T09:06:46.160Z,97895.38
2023-04-21T09:12:01.419Z,97891.94
2023-04-21T09:17:04.511Z,97890.09
2023-04-21T09:22:06.694Z,97890.97
2023-04-21T09:27:10.038Z,97891.38
2023-04-21T09:32:12.459Z,97886.63
2023-04-21T09:37:17.259Z,97890.16
2023-04-21T09:42:20.505Z,97878.34
2023-04-21T09:47:22.916Z,97879.34
2023-04-21T09:52:28.795Z,97878.91
2023-04-21T13:10:02.633Z,97778.59
2023-04-21T13:15:04.604Z,97784.66
2023-04-21T13:20:07.243Z,97777.03
2023-04-21T13:25:09.180Z,97764.94
2023-04-21T13:30:11.856Z,97764.75
2023-04-21T13:35:13.341Z,97765.78
2023-04-21T13:40:14.803Z,97759.63
2023-04-21T13:45:16.190Z,97748.09
2023-04-21T13:50:18.496Z,97742.56
2023-04-21T13:55:20.653Z,97741.13
2023-04-21T14:00:22.244Z,97730.31
2023-04-21T14:05:23.939Z,97722.09
2023-04-21T14:10:25.657Z,97722.44
2023-04-21T14:15:27.128Z,97716.69
2023-04-21T14:20:29.290Z,97706.69
2023-04-21T14:25:30.755Z,97705.81
2023-04-21T14:30:32.336Z,97705.16
2023-04-21T14:35:36.824Z,97690.50
2023-04-21T14:40:38.287Z,97700.34
2023-04-21T14:45:41.012Z,97696.59
2023-04-21T14:50:42.942Z,97694.19
2023-04-21T14:55:44.377Z,97686.94
2023-04-21T15:00:46.036Z,97685.25
2023-04-21T15:05:47.502Z,97673.22
2023-04-21T15:10:49.085Z,97672.59
2023-04-21T15:15:53.461Z,97670.41
2023-04-21T15:20:55.309Z,97664.53
2023-04-21T15:25:57.833Z,97656.19
2023-04-21T15:30:59.319Z,97662.75
2023-04-21T15:36:00.825Z,97655.31
2023-04-21T15:41:02.311Z,97645.00
2023-04-21T15:46:12.765Z,97649.03
2023-04-21T15:51:14.567Z,97656.31
2023-04-21T15:56:16.643Z,97649.53
2023-04-21T16:01:19.729Z,97637.66
2023-04-21T16:06:21.567Z,97648.09
2023-04-21T16:11:25.022Z,97638.34
2023-04-21T16:16:26.674Z,97639.31
2023-04-21T16:21:28.230Z,97642.00
2023-04-21T16:26:33.028Z,97636.47
2023-04-21T16:31:34.541Z,97634.91
2023-04-21T16:36:36.154Z,97626.78
2023-04-21T16:41:37.697Z,97625.97
2023-04-21T16:46:39.335Z,97617.69
2023-04-21T16:51:44.578Z,97613.91
2023-04-21T16:56:46.284Z,97629.28
2023-04-21T17:01:47.727Z,97614.56
2023-04-21T17:06:49.194Z,97612.66
2023-04-21T17:11:50.640Z,97615.06
2023-04-21T17:16:52.284Z,97616.13
2023-04-21T17:21:53.714Z,97608.59
2023-04-21T17:26:55.273Z,97606.13
2023-04-21T17:31:56.801Z,97604.22
2023-04-21T17:36:58.338Z,97603.41
2023-04-21T17:41:59.792Z,97603.72
2023-04-21T17:47:02.054Z,97607.72
2023-04-21T17:52:03.472Z,97608.00
2023-04-21T17:57:04.913Z,97619.59
2023-04-21T18:02:07.359Z,97613.34
2023-04-21T18:07:09.164Z,97615.81
2023-04-21T18:12:10.938Z,97617.88
2023-04-21T18:17:13.063Z,97623.06
2023-04-21T18:22:16.331Z,97633.50
2023-04-21T18:27:17.754Z,97633.00
2023-04-21T18:32:19.175Z,97634.09
2023-04-21T18:37:20.853Z,97635.63
2023-04-21T18:42:22.289Z,97638.22
2023-04-21T18:47:23.830Z,97636.44
2023-04-21T18:52:25.479Z,97635.25
2023-04-21T18:57:27.623Z,97639.44
2023-04-21T19:02:30.012Z,97640.91
2023-04-21T19:07:31.738Z,97634.13
2023-04-21T19:12:34.095Z,97635.56
2023-04-21T19:17:35.586Z,97631.84
2023-04-21T19:22:37.358Z,97636.19
2023-04-21T19:27:40.120Z,97638.03
2023-04-21T19:32:41.583Z,97641.94
2023-04-21T19:37:43.786Z,97636.19
2023-04-21T19:42:45.449Z,97638.25
2023-04-21T19:47:47.581Z,97637.84
2023-04-21T19:52:49.058Z,97633.28
2023-04-21T19:57:50.927Z,97630.44
2023-04-21T20:02:52.401Z,97639.47
2023-04-21T20:07:54.100Z,97635.34
2023-04-21T20:12:55.544Z,97630.38
2023-04-21T20:17:57.316Z,97637.59
2023-04-21T20:22:59.858Z,97633.66
2023-04-21T20:28:01.225Z,97634.28
2023-04-21T20:33:02.721Z,97634.44
2023-04-21T20:38:05.491Z,97641.47
2023-04-21T20:43:07.475Z,97638.56
2023-04-21T20:48:09.302Z,97647.78
2023-04-21T20:53:10.735Z,97640.94
2023-04-21T20:58:12.259Z,97643.38
2023-04-21T21:03:14.155Z,97647.06
2023-04-21T21:08:15.728Z,97654.03
2023-04-21T21:13:17.180Z,97653.19
2023-04-21T21:18:18.640Z,97661.78
2023-04-21T21:23:20.027Z,97654.38
2023-04-21T21:28:21.458Z,97659.28
2023-04-21T21:33:23.047Z,97655.75
2023-04-21T21:38:24.579Z,97667.09
2023-04-21T21:43:26.009Z,97665.47
2023-04-21T21:48:27.452Z,97673.88
2023-04-21T21:53:28.871Z,97675.50
2023-04-21T21:58:30.897Z,97676.91
